地図

経路データ

SID SEASON NUMBER BASIN SUBBASIN NAME ISO_TIME NATURE LAT LON WMO_WIND WMO_PRES WMO_AGENCY TRACK_TYPE DIST2LAND LANDFALL IFLAG USA_AGENCY USA_ATCF_ID USA_LAT USA_LON USA_RECORD USA_STATUS USA_WIND USA_PRES USA_SSHS USA_R34_NE USA_R34_SE USA_R34_SW USA_R34_NW USA_R50_NE USA_R50_SE USA_R50_SW USA_R50_NW USA_R64_NE USA_R64_SE USA_R64_SW USA_R64_NW USA_POCI USA_ROCI USA_RMW USA_EYE TOKYO_LAT TOKYO_LON TOKYO_GRADE TOKYO_WIND TOKYO_PRES TOKYO_R50_DIR TOKYO_R50_LONG TOKYO_R50_SHORT TOKYO_R30_DIR TOKYO_R30_LONG TOKYO_R30_SHORT TOKYO_LAND CMA_LAT CMA_LON CMA_CAT CMA_WIND CMA_PRES HKO_LAT HKO_LON HKO_CAT HKO_WIND HKO_PRES NEWDELHI_LAT NEWDELHI_LON NEWDELHI_GRADE NEWDELHI_WIND NEWDELHI_PRES NEWDELHI_CI NEWDELHI_DP NEWDELHI_POCI REUNION_LAT REUNION_LON REUNION_TYPE REUNION_WIND REUNION_PRES REUNION_TNUM REUNION_CI REUNION_RMW REUNION_R34_NE REUNION_R34_SE REUNION_R34_SW REUNION_R34_NW REUNION_R50_NE REUNION_R50_SE REUNION_R50_SW REUNION_R50_NW REUNION_R64_NE REUNION_R64_SE REUNION_R64_SW REUNION_R64_NW BOM_LAT BOM_LON BOM_TYPE BOM_WIND BOM_PRES BOM_TNUM BOM_CI BOM_RMW BOM_R34_NE BOM_R34_SE BOM_R34_SW BOM_R34_NW BOM_R50_NE BOM_R50_SE BOM_R50_SW BOM_R50_NW BOM_R64_NE BOM_R64_SE BOM_R64_SW BOM_R64_NW BOM_ROCI BOM_POCI BOM_EYE BOM_POS_METHOD BOM_PRES_METHOD NADI_LAT NADI_LON NADI_CAT NADI_WIND NADI_PRES WELLINGTON_LAT WELLINGTON_LON WELLINGTON_WIND WELLINGTON_PRES DS824_LAT DS824_LON DS824_STAGE DS824_WIND DS824_PRES TD9636_LAT TD9636_LON TD9636_STAGE TD9636_WIND TD9636_PRES TD9635_LAT TD9635_LON TD9635_WIND TD9635_PRES TD9635_ROCI NEUMANN_LAT NEUMANN_LON NEUMANN_CLASS NEUMANN_WIND NEUMANN_PRES MLC_LAT MLC_LON MLC_CLASS MLC_WIND MLC_PRES USA_GUST BOM_GUST BOM_GUST_PER REUNION_GUST REUNION_GUST_PER USA_SEAHGT USA_SEARAD_NE USA_SEARAD_SE USA_SEARAD_SW USA_SEARAD_NW STORM_SPEED STORM_DIR
1935065S13124 1935 16 SI WA NOT_NAMED 1935-03-05 23:00:00 NR -13.0000 124.100 main 214 205 __________O___ -1 -13.0000 124.100 7 5 0
1935065S13124 1935 16 SI WA NOT_NAMED 1935-03-06 00:00:00 NR -13.0805 124.098 main 205 196 __________P___ -1 -13.0805 124.098 7 6 0
1935065S13124 1935 16 SI WA NOT_NAMED 1935-03-06 01:00:00 NR -13.1956 124.096 bom main 196 187 ______O___P___ -1 -13.3000 124.100 -13.1608 124.095 7 5 0
1935065S13124 1935 16 SI WA NOT_NAMED 1935-03-06 03:00:00 NR -13.3526 124.079 main 179 171 ______P___P___ -1 -13.4182 124.061 -13.3198 124.088 7 5 188
1935065S13124 1935 16 SI WA NOT_NAMED 1935-03-06 06:00:00 NR -13.5692 124.039 main 171 157 ______P___P___ -1 -13.5938 123.999 -13.5508 124.070 7 4 193
1935065S13124 1935 16 SI WA NOT_NAMED 1935-03-06 09:00:00 NR -13.7661 123.983 main 157 151 ______P___P___ -1 -13.7652 123.931 -13.7671 124.035 7 4 197
1935065S13124 1935 16 SI WA NOT_NAMED 1935-03-06 11:00:00 NR -13.8879 123.940 main 160 160 ______P___O___ -1 -13.8757 123.880 -13.9000 124.000 7 4 202
1935065S13124 1935 16 SI WA NOT_NAMED 1935-03-06 12:00:00 NR -13.9461 123.915 main 160 150 ______P___P___ -1 -13.9296 123.852 -13.9625 123.978 7 4 206
1935065S13124 1935 16 SI WA NOT_NAMED 1935-03-06 15:00:00 NR -14.1095 123.824 main 160 155 ______P___P___ -1 -14.0847 123.760 -14.1343 123.888 7 4 214
1935065S13124 1935 16 SI WA NOT_NAMED 1935-03-06 18:00:00 NR -14.2566 123.702 main 155 155 ______P___P___ -1 -14.2277 123.649 -14.2854 123.755 7 4 224
1935065S13124 1935 16 SI WA NOT_NAMED 1935-03-06 21:00:00 NR -14.3876 123.541 main 165 163 ______P___P___ -1 -14.3561 123.517 -14.4191 123.564 7 4 234
1935065S13124 1935 16 SI WA NOT_NAMED 1935-03-06 23:00:00 NR -14.4661 123.407 main 163 163 ______P___O___ -1 -14.4323 123.415 -14.5000 123.400 7 5 240
1935065S13124 1935 16 SI WA NOT_NAMED 1935-03-07 00:00:00 NR -14.5049 123.334 main 170 170 ______P___P___ -1 -14.4672 123.359 -14.5425 123.309 7 5 243
1935065S13124 1935 16 SI WA NOT_NAMED 1935-03-07 01:00:00 NR -14.5417 123.255 bom main 170 170 ______O___P___ -1 -14.5000 123.300 -14.5834 123.209 7 5 247
1935065S13124 1935 16 SI WA NOT_NAMED 1935-03-07 03:00:00 NR -14.6095 123.080 main 178 178 ______P___P___ -1 -14.5589 123.172 -14.6601 122.987 7 6 251
1935065S13124 1935 16 SI WA NOT_NAMED 1935-03-07 06:00:00 NR -14.6978 122.782 main 193 193 ______P___P___ -1 -14.6330 122.955 -14.7625 122.608 7 6 255
1935065S13124 1935 16 SI WA NOT_NAMED 1935-03-07 09:00:00 NR -14.7721 122.450 main 195 195 ______P___P___ -1 -14.6943 122.710 -14.8500 122.191 7 7 258
1935065S13124 1935 16 SI WA NOT_NAMED 1935-03-07 11:00:00 NR -14.8152 122.216 main 204 204 ______P___O___ -1 -14.7304 122.532 -14.9000 121.900 7 7 261
1935065S13124 1935 16 SI WA NOT_NAMED 1935-03-07 12:00:00 NR -14.8287 122.099 main 208 208 ______P___P___ -1 -14.7475 122.439 -14.9098 121.760 7 7 265
1935065S13124 1935 16 SI WA NOT_NAMED 1935-03-07 15:00:00 NR -14.8600 121.733 main 220 220 ______P___P___ -1 -14.7973 122.143 -14.9226 121.323 7 7 265
1935065S13124 1935 16 SI WA NOT_NAMED 1935-03-07 18:00:00 NR -14.8954 121.347 main 247 247 ______P___P___ -1 -14.8485 121.825 -14.9422 120.869 7 8 263
1935065S13124 1935 16 SI WA NOT_NAMED 1935-03-07 21:00:00 NR -14.9574 120.946 main 270 270 ______P___P___ -1 -14.9059 121.484 -15.0090 120.407 7 8 259
1935065S13124 1935 16 SI WA NOT_NAMED 1935-03-07 23:00:00 NR -15.0249 120.673 main 286 286 ______P___O___ -1 -14.9498 121.246 -15.1000 120.100 7 8 254
1935065S13124 1935 16 SI WA NOT_NAMED 1935-03-08 00:00:00 NR -15.0702 120.540 main 293 293 ______P___P___ -1 -14.9740 121.124 -15.1663 119.956 7 8 249
1935065S13124 1935 16 SI WA NOT_NAMED 1935-03-08 01:00:00 NR -15.1215 120.407 bom main 301 301 ______O___P___ -1 -15.0000 121.000 -15.2430 119.813 7 8 246
1935065S13124 1935 16 SI WA NOT_NAMED 1935-03-08 03:00:00 NR -15.2398 120.141 main 316 309 ______P___P___ -1 -15.0556 120.756 -15.4240 119.527 7 9 243
1935065S13124 1935 16 SI WA NOT_NAMED 1935-03-08 06:00:00 NR -15.4492 119.729 main 336 330 ______P___P___ -1 -15.1456 120.369 -15.7529 119.089 7 9 241
1935065S13124 1935 16 SI WA NOT_NAMED 1935-03-08 09:00:00 NR -15.6881 119.296 main 356 356 ______P___P___ -1 -15.2451 119.963 -16.1311 118.628 7 10 240
1935065S13124 1935 16 SI WA NOT_NAMED 1935-03-08 11:00:00 NR -15.8587 118.991 main 375 375 ______P___O___ -1 -15.3174 119.682 -16.4000 118.300 7 11 240
1935065S13124 1935 16 SI WA NOT_NAMED 1935-03-08 12:00:00 NR -15.9513 118.825 main 390 390 ______P___P___ -1 -15.3556 119.540 -16.5470 118.110 7 12 240
1935065S13124 1935 16 SI WA NOT_NAMED 1935-03-08 15:00:00 NR -16.2481 118.304 main 433 422 ______P___P___ -1 -15.4786 119.103 -17.0176 117.505 7 12 239
1935065S13124 1935 16 SI WA NOT_NAMED 1935-03-08 18:00:00 NR -16.5508 117.774 main 414 409 ______P___P___ -1 -15.6157 118.657 -17.4859 116.890 7 12 240
1935065S13124 1935 16 SI WA NOT_NAMED 1935-03-08 21:00:00 NR -16.8306 117.265 main 411 397 ______P___P___ -1 -15.7687 118.206 -17.8925 116.324 7 11 241
1935065S13124 1935 16 SI WA NOT_NAMED 1935-03-08 23:00:00 NR -16.9901 116.951 main 397 397 ______P___O___ -1 -15.8802 117.903 -18.1000 116.000 7 10 243
1935065S13124 1935 16 SI WA NOT_NAMED 1935-03-09 00:00:00 NR -17.0552 116.812 main 391 391 ______P___P___ -1 -15.9390 117.751 -18.1714 115.872 7 9 244
1935065S13124 1935 16 SI WA NOT_NAMED 1935-03-09 01:00:00 NR -17.1143 116.679 bom main 391 380 ______O___P___ -1 -16.0000 117.600 -18.2287 115.758 7 8 246
1935065S13124 1935 16 SI WA NOT_NAMED 1935-03-09 03:00:00 NR -17.2219 116.425 main 381 371 ______P___P___ -1 -16.1382 117.288 -18.3057 115.562 7 8 247
1935065S13124 1935 16 SI WA NOT_NAMED 1935-03-09 06:00:00 NR -17.3554 116.070 main 363 359 ______P___P___ -1 -16.3643 116.812 -18.3466 115.329 7 7 250
1935065S13124 1935 16 SI WA NOT_NAMED 1935-03-09 09:00:00 NR -17.4676 115.732 main 362 362 ______P___P___ -1 -16.6068 116.332 -18.3283 115.132 7 7 251
1935065S13124 1935 16 SI WA NOT_NAMED 1935-03-09 11:00:00 NR -17.5371 115.507 main 369 358 ______P___O___ -1 -16.7742 116.014 -18.3000 115.000 7 7 252
1935065S13124 1935 16 SI WA NOT_NAMED 1935-03-09 12:00:00 NR -17.5772 115.386 main 362 362 ______P___P___ -1 -16.8589 115.856 -18.2955 114.917 7 7 252
1935065S13124 1935 16 SI WA NOT_NAMED 1935-03-09 15:00:00 NR -17.6867 115.028 main 370 370 ______P___P___ -1 -17.1140 115.389 -18.2594 114.666 7 7 253
1935065S13124 1935 16 SI WA NOT_NAMED 1935-03-09 18:00:00 NR -17.7835 114.678 main 377 377 ______P___P___ -1 -17.3653 114.940 -18.2017 114.416 7 7 254
1935065S13124 1935 16 SI WA NOT_NAMED 1935-03-09 21:00:00 NR -17.8721 114.341 main 390 390 ______P___P___ -1 -17.6062 114.516 -18.1380 114.167 7 7 255
1935065S13124 1935 16 SI WA NOT_NAMED 1935-03-09 23:00:00 NR -17.9289 114.125 main 401 398 ______P___O___ -1 -17.7578 114.250 -18.1000 114.000 7 6 254
1935065S13124 1935 16 SI WA NOT_NAMED 1935-03-10 00:00:00 NR -17.9580 114.020 main 398 398 ______P___P___ -1 -17.8302 114.123 -18.0858 113.917 7 6 254
1935065S13124 1935 16 SI WA NOT_NAMED 1935-03-10 01:00:00 NR -17.9862 113.917 bom main 404 404 ______O___P___ -1 -17.9000 114.000 -18.0723 113.833 7 6 255
1935065S13124 1935 16 SI WA NOT_NAMED 1935-03-10 03:00:00 NR -18.0346 113.718 main 416 407 ______P___P___ -1 -18.0213 113.770 -18.0478 113.667 7 6 256
1935065S13124 1935 16 SI WA NOT_NAMED 1935-03-10 06:00:00 NR -18.1044 113.435 main 425 420 ______P___P___ -1 -18.1898 113.453 -18.0190 113.417 7 5 255
1935065S13124 1935 16 SI WA NOT_NAMED 1935-03-10 09:00:00 NR -18.1732 113.167 main 422 422 ______P___P___ -1 -18.3439 113.167 -18.0026 113.167 7 5 254
1935065S13124 1935 16 SI WA NOT_NAMED 1935-03-10 11:00:00 NR -18.2197 112.995 main 426 426 ______P___O___ -1 -18.4395 112.991 -18.0000 113.000 7 5 255
1935065S13124 1935 16 SI WA NOT_NAMED 1935-03-10 12:00:00 NR -18.2392 112.910 main 429 418 ______P___P___ -1 -18.4854 112.907 -17.9930 112.913 7 5 256
1935065S13124 1935 16 SI WA NOT_NAMED 1935-03-10 15:00:00 NR -18.2979 112.660 main 424 421 ______P___P___ -1 -18.6163 112.670 -17.9795 112.650 7 5 255
1935065S13124 1935 16 SI WA NOT_NAMED 1935-03-10 18:00:00 NR -18.3640 112.422 main 425 425 ______P___P___ -1 -18.7385 112.452 -17.9894 112.393 7 5 251
1935065S13124 1935 16 SI WA NOT_NAMED 1935-03-10 21:00:00 NR -18.4460 112.200 main 434 424 ______P___P___ -1 -18.8538 112.251 -18.0381 112.149 7 4 246
1935065S13124 1935 16 SI WA NOT_NAMED 1935-03-10 23:00:00 NR -18.5139 112.062 main 428 428 ______P___O___ -1 -18.9278 112.123 -18.1000 112.000 7 4 241
1935065S13124 1935 16 SI WA NOT_NAMED 1935-03-11 00:00:00 NR -18.5512 111.995 main 423 423 ______P___P___ -1 -18.9641 112.061 -18.1382 111.928 7 4 238
1935065S13124 1935 16 SI WA NOT_NAMED 1935-03-11 01:00:00 NR -18.5914 111.929 bom main 429 425 ______O___P___ -1 -19.0000 112.000 -18.1828 111.858 7 5 238
1935065S13124 1935 16 SI WA NOT_NAMED 1935-03-11 03:00:00 NR -18.6745 111.789 main 425 421 ______P___P___ -1 -19.0596 111.851 -18.2895 111.727 7 5 235
1935065S13124 1935 16 SI WA NOT_NAMED 1935-03-11 06:00:00 NR -18.8141 111.592 main 427 422 ______P___P___ -1 -19.1398 111.636 -18.4884 111.548 7 5 230
1935065S13124 1935 16 SI WA NOT_NAMED 1935-03-11 09:00:00 NR -18.9702 111.414 main 422 420 ______P___P___ -1 -19.2149 111.435 -18.7254 111.392 7 5 225
1935065S13124 1935 16 SI WA NOT_NAMED 1935-03-11 11:00:00 NR -19.0827 111.305 main 420 420 ______P___O___ -1 -19.2654 111.310 -18.9000 111.300 7 5 221
1935065S13124 1935 16 SI WA NOT_NAMED 1935-03-11 12:00:00 NR -19.1433 111.252 main 420 411 ______P___P___ -1 -19.2915 111.251 -18.9952 111.254 7 5 216
1935065S13124 1935 16 SI WA NOT_NAMED 1935-03-11 15:00:00 NR -19.3412 111.108 main 419 411 ______P___P___ -1 -19.3761 111.085 -19.3063 111.132 7 5 212
1935065S13124 1935 16 SI WA NOT_NAMED 1935-03-11 18:00:00 NR -19.5522 110.985 main 404 398 ______P___P___ -1 -19.4752 110.940 -19.6292 111.031 7 5 207
1935065S13124 1935 16 SI WA NOT_NAMED 1935-03-11 21:00:00 NR -19.7625 110.883 main 398 398 ______P___P___ -1 -19.5955 110.819 -19.9295 110.947 7 5 203
1935065S13124 1935 16 SI WA NOT_NAMED 1935-03-11 23:00:00 NR -19.8953 110.827 main 400 400 ______P___O___ -1 -19.6906 110.753 -20.1000 110.900 7 4 203
1935065S13124 1935 16 SI WA NOT_NAMED 1935-03-12 00:00:00 NR -19.9549 110.800 main 394 394 ______P___P___ -1 -19.7434 110.725 -20.1664 110.874 7 4 206
1935065S13124 1935 16 SI WA NOT_NAMED 1935-03-12 01:00:00 NR -20.0130 110.775 bom main 394 388 ______O___P___ -1 -19.8000 110.700 -20.2259 110.850 7 4 203
1935065S13124 1935 16 SI WA NOT_NAMED 1935-03-12 03:00:00 NR -20.1259 110.731 main 397 386 ______P___P___ -1 -19.9244 110.656 -20.3274 110.806 7 3 198
1935065S13124 1935 16 SI WA NOT_NAMED 1935-03-12 06:00:00 NR -20.2873 110.682 main 386 386 ______P___P___ -1 -20.1287 110.611 -20.4459 110.754 7 3 194
1935065S13124 1935 16 SI WA NOT_NAMED 1935-03-12 07:00:00 NR -20.3396 110.670 bom main 386 381 ______O___P___ -1 -20.2000 110.600 -20.4792 110.740 7 3 196
1935065S13124 1935 16 SI WA NOT_NAMED 1935-03-12 09:00:00 NR -20.4396 110.648 main 390 385 ______P___P___ -1 -20.3386 110.580 -20.5407 110.717 7 3 192
1935065S13124 1935 16 SI WA NOT_NAMED 1935-03-12 11:00:00 NR -20.5404 110.634 main 385 380 ______P___O___ -1 -20.4808 110.568 -20.6000 110.700 7 3 189
1935065S13124 1935 16 SI WA NOT_NAMED 1935-03-12 12:00:00 NR -20.5858 110.628 main 380 375 ______P___P___ -1 -20.5534 110.564 -20.6182 110.691 7 3 0
1935065S13124 1935 16 SI WA NOT_NAMED 1935-03-12 15:00:00 NR -20.7185 110.618 main 375 363 ______P___P___ -1 -20.7773 110.562 -20.6598 110.673 7 3 0
1935065S13124 1935 16 SI WA NOT_NAMED 1935-03-12 18:00:00 NR -20.8658 110.620 main 363 357 ______P___P___ -1 -21.0112 110.569 -20.7205 110.671 7 3 0
1935065S13124 1935 16 SI WA NOT_NAMED 1935-03-12 21:00:00 NR -21.0531 110.633 main 352 346 ______P___P___ -1 -21.2558 110.582 -20.8503 110.683 7 4 177
1935065S13124 1935 16 SI WA NOT_NAMED 1935-03-12 23:00:00 NR -21.2126 110.646 main 346 332 ______P___O___ -1 -21.4252 110.591 -21.0000 110.700 7 5 176
1935065S13124 1935 16 SI WA NOT_NAMED 1935-03-13 00:00:00 NR -21.3088 110.655 main 332 327 ______P___P___ -1 -21.5119 110.596 -21.1056 110.715 7 6 173
1935065S13124 1935 16 SI WA NOT_NAMED 1935-03-13 01:00:00 NR -21.4129 110.666 bom main 327 318 ______O___P___ -1 -21.6000 110.600 -21.2258 110.732 7 7 175
1935065S13124 1935 16 SI WA NOT_NAMED 1935-03-13 03:00:00 NR -21.6478 110.686 main 318 305 ______P___P___ -1 -21.7915 110.600 -21.5041 110.772 7 8 176
1935065S13124 1935 16 SI WA NOT_NAMED 1935-03-13 06:00:00 NR -22.0435 110.717 main 305 298 ______P___P___ -1 -22.0937 110.600 -21.9933 110.834 7 8 176
1935065S13124 1935 16 SI WA NOT_NAMED 1935-03-13 09:00:00 NR -22.4702 110.742 main 297 297 ______P___P___ -1 -22.4078 110.600 -22.5326 110.884 7 9 177
1935065S13124 1935 16 SI WA NOT_NAMED 1935-03-13 11:00:00 NR -22.7602 110.750 main 287 287 ______P___O___ -1 -22.6204 110.600 -22.9000 110.900 7 9 0
1935065S13124 1935 16 SI WA NOT_NAMED 1935-03-13 12:00:00 NR -22.9080 110.748 main 299 292 ______P___P___ -1 -22.7269 110.600 -23.0892 110.896 7 9 0
1935065S13124 1935 16 SI WA NOT_NAMED 1935-03-13 15:00:00 NR -23.3603 110.730 main 290 281 ______P___P___ -1 -23.0441 110.600 -23.6765 110.860 7 9 182
1935065S13124 1935 16 SI WA NOT_NAMED 1935-03-13 18:00:00 NR -23.7999 110.701 main 281 274 ______P___P___ -1 -23.3526 110.600 -24.2472 110.803 7 8 184
1935065S13124 1935 16 SI WA NOT_NAMED 1935-03-13 21:00:00 NR -24.1937 110.669 main 274 273 ______P___P___ -1 -23.6456 110.600 -24.7418 110.739 7 7 183
1935065S13124 1935 16 SI WA NOT_NAMED 1935-03-13 23:00:00 NR -24.4144 110.650 main 273 273 ______P___O___ -1 -23.8288 110.600 -25.0000 110.700 7 6 182
1935065S13124 1935 16 SI WA NOT_NAMED 1935-03-14 00:00:00 NR -24.5025 110.645 main 283 283 ______P___P___ -1 -23.9160 110.600 -25.0891 110.689 7 5 188
1935065S13124 1935 16 SI WA NOT_NAMED 1935-03-14 01:00:00 NR -24.5805 110.640 bom main 284 284 ______O___P___ -1 -24.0000 110.600 -25.1611 110.680 7 4 0
1935065S13124 1935 16 SI WA NOT_NAMED 1935-03-14 03:00:00 NR -24.7099 110.632 main 284 284 ______P___P___ -1 -24.1577 110.600 -25.2621 110.664 7 3 184
1935065S13124 1935 16 SI WA NOT_NAMED 1935-03-14 06:00:00 NR -24.8541 110.621 main 288 288 ______P___P___ -1 -24.3704 110.600 -25.3378 110.643 7 3 185
1935065S13124 1935 16 SI WA NOT_NAMED 1935-03-14 09:00:00 NR -24.9652 110.610 main 290 290 ______P___P___ -1 -24.5581 110.600 -25.3722 110.620 7 2 0
1935065S13124 1935 16 SI WA NOT_NAMED 1935-03-14 11:00:00 NR -25.0357 110.600 main 290 288 ______P___O___ -1 -24.6713 110.600 -25.4000 110.600 7 2 0
1935065S13124 1935 16 SI WA NOT_NAMED 1935-03-14 12:00:00 NR -25.0711 110.596 main 288 286 ______P___P___ -1 -24.7248 110.600 -25.4174 110.591 7 2 191
1935065S13124 1935 16 SI WA NOT_NAMED 1935-03-14 15:00:00 NR -25.1704 110.581 main 286 284 ______P___P___ -1 -24.8743 110.600 -25.4664 110.562 7 2 191
1935065S13124 1935 16 SI WA NOT_NAMED 1935-03-14 18:00:00 NR -25.2801 110.560 main 284 284 ______P___P___ -1 -25.0107 110.600 -25.5496 110.521 7 3 188
1935065S13124 1935 16 SI WA NOT_NAMED 1935-03-14 21:00:00 NR -25.4274 110.529 main 290 285 ______P___P___ -1 -25.1379 110.600 -25.7169 110.458 7 4 192
1935065S13124 1935 16 SI WA NOT_NAMED 1935-03-14 23:00:00 NR -25.6084 110.486 main 285 283 ______P___O___ -1 -25.2195 110.600 -25.9000 110.400 7 7 195
1935065S13124 1935 16 SI WA NOT_NAMED 1935-03-15 00:00:00 NR -25.7668 110.434 main 291 290 ______P___P___ -1 -25.2598 110.600 -26.0203 110.351 7 12 198
1935065S13124 1935 16 SI WA NOT_NAMED 1935-03-15 01:00:00 NR -25.9854 110.356 bom main 289 289 ______O___P___ -1 -25.3000 110.600 -26.1567 110.295 7 15 198
1935065S13124 1935 16 SI WA NOT_NAMED 1935-03-15 03:00:00 NR -26.4723 110.175 main 309 309 __________P___ -1 -26.4723 110.175 7 13 197
1935065S13124 1935 16 SI WA NOT_NAMED 1935-03-15 06:00:00 NR -27.0315 109.992 main 336 336 __________P___ -1 -27.0315 109.992 7 12 194
1935065S13124 1935 16 SI WA NOT_NAMED 1935-03-15 09:00:00 NR -27.6604 109.850 main 380 380 __________P___ -1 -27.6604 109.850 7 13 189
1935065S13124 1935 16 SI WA NOT_NAMED 1935-03-15 11:00:00 NR -28.1000 109.800 main 399 399 __________O___ -1 -28.1000 109.800 7 13 185
1935065S13124 1935 16 SI WA NOT_NAMED 1935-03-15 12:00:00 NR -28.3220 109.794 main 411 411 __________P___ -1 -28.3220 109.794 7 13 177
1935065S13124 1935 16 SI WA NOT_NAMED 1935-03-15 15:00:00 NR -28.9925 109.844 main 440 433 __________P___ -1 -28.9925 109.844 7 14 173
1935065S13124 1935 16 SI WA NOT_NAMED 1935-03-15 18:00:00 NR -29.6682 109.977 main 445 445 __________P___ -1 -29.6682 109.977 7 14 168
1935065S13124 1935 16 SI WA NOT_NAMED 1935-03-15 21:00:00 NR -30.3469 110.162 main 456 455 __________P___ -1 -30.3469 110.162 7 14 166
1935065S13124 1935 16 SI WA NOT_NAMED 1935-03-15 23:00:00 NR -30.8000 110.300 main 458 __________O___ -1 -30.8000 110.300 7 14 165

IBTrACS Databaseについて

本データベースは、米国NOAAが公開する1842年以降の世界の熱帯低気圧のベストトラックデータアーカイブInternational Best Track Archive for Climate Stewardship (IBTrACS)を、ウェブで閲覧しやすい形式に変換したものです。

最終更新日:2021-10-25